Time;durP1;ratioP1;P1;durP2;ratioP2;P2;SDS_P1;SDS_P2;PMS_P1;PMS_P2;Temp;Humidity;BMP_temperature;BMP_pressure;BME280_temperature;BME280_humidity;BME280_pressure;Samples;Min_cycle;Max_cycle;Signal;HPM_P1;HPM_P2
2022/11/27 00:01:56;;;;;;;18.90;17.80;;;7.10;41.40;;;;;;4976651;28;20178;-53
2022/11/27 00:04:21;;;;;;;20.30;19.00;;;7.30;40.30;;;;;;4978422;28;20182;-52
2022/11/27 00:06:47;;;;;;;19.57;18.10;;;7.50;40.50;;;;;;4978426;28;20201;-52
2022/11/27 00:09:14;;;;;;;17.57;16.27;;;7.50;39.30;;;;;;4979220;28;20171;-53
2022/11/27 00:11:41;;;;;;;17.60;16.47;;;7.70;39.60;;;;;;4978746;28;20533;-53
2022/11/27 00:14:10;;;;;;;18.60;17.40;;;7.90;38.50;;;;;;4978632;28;20483;-53
2022/11/27 00:16:35;;;;;;;18.10;16.93;;;8.10;37.70;;;;;;4978384;28;20475;-51
2022/11/27 00:19:01;;;;;;;16.93;15.83;;;8.30;37.00;;;;;;4976211;28;20523;-48
2022/11/27 00:21:33;;;;;;;20.93;19.50;;;8.40;36.30;;;;;;4979390;28;20260;-53
2022/11/27 00:24:01;;;;;;;20.77;19.27;;;8.40;36.30;;;;;;4978014;28;20174;-50
2022/11/27 00:26:28;;;;;;;20.77;19.27;;;8.40;35.80;;;;;;4976817;28;20568;-49
2022/11/27 00:28:54;;;;;;;20.70;19.40;;;8.50;35.40;;;;;;4978178;28;20414;-52
2022/11/27 00:31:22;;;;;;;21.13;19.20;;;8.60;35.10;;;;;;4980020;28;20424;-49
2022/11/27 00:33:48;;;;;;;20.60;19.10;;;8.60;34.90;;;;;;4978821;28;20265;-49
2022/11/27 00:36:15;;;;;;;18.37;17.10;;;8.60;34.50;;;;;;4980714;28;20935;-53
2022/11/27 00:38:41;;;;;;;18.40;17.27;;;8.50;34.20;;;;;;4980877;28;20536;-51
2022/11/27 00:41:19;;;;;;;19.80;18.60;;;8.40;35.20;;;;;;4981314;28;20443;-51
2022/11/27 00:43:45;;;;;;;16.90;15.90;;;8.40;35.30;;;;;;4980979;28;20925;-50
2022/11/27 00:46:12;;;;;;;17.70;16.47;;;8.50;34.40;;;;;;4979918;28;20518;-49
2022/11/27 00:48:38;;;;;;;18.13;16.93;;;8.30;35.40;;;;;;4981543;28;20405;-53
2022/11/27 00:51:08;;;;;;;17.40;16.33;;;8.40;35.20;;;;;;4981897;28;20997;-48
2022/11/27 00:53:34;;;;;;;17.33;16.23;;;8.20;35.40;;;;;;4981581;28;20232;-52
2022/11/27 00:56:00;;;;;;;16.67;15.67;;;8.30;35.40;;;;;;4982082;28;20867;-49
2022/11/27 00:58:27;;;;;;;16.57;15.63;;;8.30;35.40;;;;;;4981390;28;20280;-53
2022/11/27 01:01:04;;;;;;;17.00;15.97;;;8.30;35.20;;;;;;4982963;28;20996;-58
2022/11/27 01:03:30;;;;;;;18.10;16.80;;;8.40;34.60;;;;;;4982425;28;20417;-58
2022/11/27 01:06:00;;;;;;;19.07;17.77;;;8.50;34.10;;;;;;4985228;28;20441;-58
2022/11/27 01:08:26;;;;;;;18.70;17.47;;;8.50;33.90;;;;;;4982230;28;20528;-58
2022/11/27 01:10:54;;;;;;;18.80;17.70;;;8.60;33.90;;;;;;4981585;28;21040;-58
2022/11/27 01:13:28;;;;;;;19.33;18.20;;;8.60;33.40;;;;;;4981166;28;20529;-57
2022/11/27 01:16:06;;;;;;;19.53;18.33;;;8.70;33.30;;;;;;4983853;28;20863;-57
2022/11/27 01:18:33;;;;;;;20.63;19.07;;;8.70;33.00;;;;;;4981332;28;20820;-57
2022/11/27 01:20:59;;;;;;;22.87;21.17;;;8.70;32.80;;;;;;4981915;28;20504;-58
2022/11/27 01:23:25;;;;;;;22.37;20.90;;;8.70;32.80;;;;;;4983900;28;20478;-58
2022/11/27 01:25:52;;;;;;;21.20;19.70;;;8.70;32.70;;;;;;4981504;28;20213;-58
2022/11/27 01:28:19;;;;;;;22.40;20.80;;;8.70;32.80;;;;;;4981163;28;20790;-50
2022/11/27 01:30:45;;;;;;;23.03;21.33;;;8.60;32.50;;;;;;4979967;28;20441;-50
2022/11/27 01:33:11;;;;;;;22.70;21.10;;;8.60;32.40;;;;;;4981014;28;20436;-49
2022/11/27 01:35:36;;;;;;;23.77;22.10;;;8.70;32.40;;;;;;4982578;28;20178;-50
2022/11/27 01:38:02;;;;;;;22.33;20.90;;;8.70;32.00;;;;;;4981963;28;20197;-49
2022/11/27 01:40:28;;;;;;;21.63;20.07;;;8.50;32.00;;;;;;4978864;28;20186;-54
2022/11/27 01:42:54;;;;;;;21.87;20.40;;;8.00;33.30;;;;;;4982142;28;20421;-49
2022/11/27 01:45:20;;;;;;;22.30;20.80;;;7.70;34.60;;;;;;4981307;28;20305;-49
2022/11/27 01:47:51;;;;;;;21.27;19.73;;;7.40;35.60;;;;;;4979326;28;20210;-48
2022/11/27 01:50:22;;;;;;;19.43;18.33;;;7.40;36.30;;;;;;4979584;28;20451;-49
2022/11/27 01:52:51;;;;;;;17.37;16.27;;;7.60;36.30;;;;;;4983265;28;20421;-48
2022/11/27 01:55:46;;;;;;;17.30;15.90;;;7.50;35.10;;;;;;4980273;28;20432;-49
2022/11/27 01:58:25;;;;;;;18.30;17.20;;;7.20;37.10;;;;;;4973529;28;20433;-49
2022/11/27 02:00:51;;;;;;;18.07;16.90;;;6.40;38.80;;;;;;4980582;28;20433;-50
2022/11/27 02:03:17;;;;;;;17.67;16.57;;;6.40;39.70;;;;;;4980247;28;20606;-51
2022/11/27 02:05:42;;;;;;;17.33;16.33;;;6.40;39.10;;;;;;4980111;28;20726;-49
2022/11/27 02:08:11;;;;;;;17.97;16.87;;;6.30;39.50;;;;;;4979249;28;20209;-50
2022/11/27 02:10:48;;;;;;;16.77;15.77;;;6.40;39.60;;;;;;4982485;28;20268;-49
2022/11/27 02:13:30;;;;;;;17.07;16.07;;;6.50;39.60;;;;;;4981444;28;20433;-52
2022/11/27 02:15:58;;;;;;;18.47;17.37;;;6.50;39.10;;;;;;4980430;28;20780;-50
2022/11/27 02:18:47;;;;;;;16.50;15.50;;;6.70;38.40;;;;;;4981307;28;20440;-52
2022/11/27 02:21:24;;;;;;;18.00;16.90;;;6.80;37.80;;;;;;4980567;28;20440;-50
2022/11/27 02:24:02;;;;;;;16.27;15.47;;;6.90;37.70;;;;;;4978921;28;20417;-50
2022/11/27 02:26:49;;;;;;;17.97;16.90;;;6.90;37.60;;;;;;4980540;28;20456;-52
2022/11/27 02:29:21;;;;;;;17.40;16.40;;;6.90;37.30;;;;;;4981477;28;20425;-54
2022/11/27 02:31:47;;;;;;;17.20;16.13;;;7.00;37.30;;;;;;4980572;28;20459;-51
2022/11/27 02:34:29;;;;;;;17.27;16.07;;;7.00;37.30;;;;;;4979024;28;20441;-53
2022/11/27 02:37:21;;;;;;;17.20;15.97;;;7.00;38.10;;;;;;4979782;28;20182;-58
2022/11/27 02:40:33;;;;;;;16.73;15.73;;;6.90;37.50;;;;;;4979471;28;20464;-58
2022/11/27 02:43:32;;;;;;;16.97;15.87;;;6.90;37.00;;;;;;4976449;28;20444;-58
2022/11/27 02:45:59;;;;;;;16.93;15.90;;;6.90;37.20;;;;;;4959388;28;20433;-52
2022/11/27 02:48:31;;;;;;;16.70;15.77;;;7.00;36.70;;;;;;4977766;28;20956;-54
2022/11/27 02:50:59;;;;;;;16.53;15.63;;;6.80;36.50;;;;;;4962424;28;20873;-52
2022/11/27 02:53:37;;;;;;;16.97;15.77;;;6.70;37.10;;;;;;4979156;28;20409;-52
2022/11/27 02:56:06;;;;;;;17.40;16.30;;;6.70;37.70;;;;;;4980520;28;20751;-51
2022/11/27 02:58:34;;;;;;;16.37;15.27;;;6.80;37.00;;;;;;4979282;28;20422;-53
2022/11/27 03:01:00;;;;;;;16.40;15.40;;;7.00;37.20;;;;;;4976430;28;20524;-51
2022/11/27 03:03:31;;;;;;;16.47;15.47;;;7.20;36.40;;;;;;4981279;28;20456;-50
2022/11/27 03:06:05;;;;;;;15.73;14.63;;;7.40;35.70;;;;;;4978788;28;20451;-52
2022/11/27 03:09:04;;;;;;;15.70;14.70;;;7.50;35.00;;;;;;4978551;28;20937;-51
2022/11/27 03:11:29;;;;;;;15.97;14.97;;;7.70;34.20;;;;;;4978356;28;20778;-49
2022/11/27 03:14:00;;;;;;;14.80;13.80;;;7.80;33.80;;;;;;4980901;28;20454;-51
2022/11/27 03:16:44;;;;;;;16.00;15.20;;;7.90;33.40;;;;;;4982709;28;20186;-52
2022/11/27 03:19:25;;;;;;;14.83;13.83;;;8.00;33.10;;;;;;4980314;28;20507;-53
2022/11/27 03:22:00;;;;;;;16.23;15.23;;;8.00;33.10;;;;;;4978794;28;20460;-53
2022/11/27 03:24:28;;;;;;;15.67;14.77;;;8.10;32.90;;;;;;4980942;28;20421;-54
2022/11/27 03:26:54;;;;;;;15.43;14.50;;;8.10;32.50;;;;;;4979195;28;20472;-50
2022/11/27 03:29:27;;;;;;;16.00;15.00;;;8.10;32.00;;;;;;4979652;28;20451;-48
2022/11/27 03:31:54;;;;;;;15.53;14.73;;;8.20;32.10;;;;;;4981061;28;20483;-50
2022/11/27 03:34:19;;;;;;;14.77;13.83;;;8.20;31.90;;;;;;4978045;28;20968;-50
2022/11/27 03:36:45;;;;;;;14.80;13.90;;;8.20;31.80;;;;;;4977258;28;20524;-52
2022/11/27 03:39:11;;;;;;;14.57;13.83;;;8.20;32.00;;;;;;4979091;28;20304;-53
2022/11/27 03:41:57;;;;;;;19.07;17.77;;;8.20;31.90;;;;;;4978369;28;20190;-54
2022/11/27 03:44:35;;;;;;;20.47;19.23;;;7.80;32.20;;;;;;4979875;28;20444;-50
2022/11/27 03:47:23;;;;;;;21.87;20.30;;;7.70;33.40;;;;;;4980967;28;20468;-51
2022/11/27 03:50:06;;;;;;;20.63;18.97;;;7.70;32.90;;;;;;4979268;28;20433;-54
2022/11/27 03:52:38;;;;;;;20.00;18.80;;;7.40;32.70;;;;;;4978116;28;20441;-49
2022/11/27 03:55:09;;;;;;;20.13;18.90;;;7.10;33.30;;;;;;4976968;28;20652;-54
2022/11/27 03:57:50;;;;;;;21.47;20.17;;;6.70;34.50;;;;;;4978296;28;20481;-49
2022/11/27 04:00:16;;;;;;;20.90;19.47;;;6.60;34.90;;;;;;4977429;28;20424;-51
2022/11/27 04:02:45;;;;;;;19.67;18.53;;;6.40;36.30;;;;;;4980503;28;20425;-51
2022/11/27 04:05:12;;;;;;;20.50;19.00;;;6.30;36.50;;;;;;4979697;28;20816;-53
2022/11/27 04:07:37;;;;;;;19.90;18.57;;;6.20;37.80;;;;;;4978686;28;20460;-49
2022/11/27 04:10:04;;;;;;;21.43;20.03;;;6.10;36.90;;;;;;4978355;28;20417;-49
2022/11/27 04:12:30;;;;;;;20.27;18.97;;;6.00;37.90;;;;;;4978389;28;20181;-50
2022/11/27 04:14:55;;;;;;;20.33;19.03;;;6.20;37.10;;;;;;4982044;28;20421;-49
2022/11/27 04:17:21;;;;;;;19.50;18.30;;;6.40;37.40;;;;;;4983014;28;20186;-54
2022/11/27 04:19:46;;;;;;;21.00;19.50;;;6.50;35.80;;;;;;4982187;28;20188;-52
2022/11/27 04:22:12;;;;;;;19.97;18.57;;;6.40;37.00;;;;;;4980972;28;20534;-53
2022/11/27 04:24:38;;;;;;;19.00;17.73;;;6.60;36.10;;;;;;4982130;28;20200;-53
2022/11/27 04:27:03;;;;;;;18.97;17.73;;;6.50;35.30;;;;;;4982511;28;20214;-51
2022/11/27 04:29:29;;;;;;;17.17;16.07;;;6.70;36.50;;;;;;4983936;28;20205;-51
2022/11/27 04:31:55;;;;;;;19.83;18.23;;;7.00;36.20;;;;;;4984943;28;20186;-54
2022/11/27 04:34:20;;;;;;;19.53;18.30;;;6.80;34.20;;;;;;4983516;28;20231;-51
2022/11/27 04:36:46;;;;;;;19.90;18.50;;;6.60;34.80;;;;;;4981840;28;20517;-53
2022/11/27 04:39:12;;;;;;;18.87;17.73;;;6.50;35.70;;;;;;4982430;28;20181;-53
2022/11/27 04:41:38;;;;;;;17.50;16.13;;;6.80;35.70;;;;;;4985061;28;20394;-53
2022/11/27 04:44:04;;;;;;;18.97;17.87;;;7.10;34.30;;;;;;4984079;28;20889;-49
2022/11/27 04:46:30;;;;;;;18.60;17.40;;;7.40;33.30;;;;;;4983344;28;21019;-52
2022/11/27 04:48:56;;;;;;;19.20;17.60;;;7.70;32.30;;;;;;4984541;28;20424;-49
2022/11/27 04:51:22;;;;;;;18.00;16.90;;;7.90;31.50;;;;;;4985190;28;20421;-49
2022/11/27 04:53:47;;;;;;;17.90;16.60;;;7.80;30.60;;;;;;4983983;28;20181;-53
2022/11/27 04:56:13;;;;;;;18.00;16.80;;;7.60;30.50;;;;;;4985000;28;20185;-49
2022/11/27 04:58:39;;;;;;;18.03;16.83;;;7.10;32.70;;;;;;4987072;28;20595;-50
2022/11/27 05:01:06;;;;;;;18.60;17.30;;;6.90;32.90;;;;;;4987199;28;20580;-52
2022/11/27 05:03:31;;;;;;;20.00;18.47;;;6.70;33.60;;;;;;4985204;28;20182;-51
2022/11/27 05:05:57;;;;;;;18.53;17.43;;;6.60;34.40;;;;;;4985446;28;20847;-50
2022/11/27 05:08:29;;;;;;;18.50;17.20;;;6.30;34.70;;;;;;4987562;28;20181;-52
2022/11/27 05:11:04;;;;;;;19.23;17.73;;;6.10;36.00;;;;;;4985712;28;20277;-52
2022/11/27 05:13:30;;;;;;;19.47;18.27;;;6.10;36.10;;;;;;4986315;28;20456;-51
2022/11/27 05:15:56;;;;;;;18.70;17.60;;;6.00;35.70;;;;;;4988154;28;20464;-49
2022/11/27 05:18:21;;;;;;;18.77;17.57;;;5.90;36.30;;;;;;4987294;28;20787;-53
2022/11/27 05:20:47;;;;;;;19.53;18.23;;;5.90;36.20;;;;;;4988117;28;20789;-53
2022/11/27 05:23:13;;;;;;;20.07;18.87;;;5.90;36.40;;;;;;4989074;28;20189;-53
2022/11/27 05:25:38;;;;;;;19.90;18.37;;;5.70;36.20;;;;;;4990789;28;20174;-52
2022/11/27 05:28:04;;;;;;;19.97;18.57;;;5.60;36.80;;;;;;4990646;28;20206;-49
2022/11/27 05:30:30;;;;;;;19.77;18.60;;;5.40;37.70;;;;;;4988261;28;20551;-49
2022/11/27 05:32:55;;;;;;;19.73;18.47;;;5.40;37.70;;;;;;4991739;28;20186;-53
2022/11/27 05:35:21;;;;;;;18.60;17.50;;;5.30;39.30;;;;;;4986240;28;20182;-53
2022/11/27 05:37:46;;;;;;;19.57;18.27;;;5.40;38.70;;;;;;4988483;28;20562;-52
2022/11/27 05:40:12;;;;;;;19.63;18.43;;;5.50;38.20;;;;;;4971224;28;20230;-53
2022/11/27 05:42:38;;;;;;;19.10;17.83;;;5.40;37.50;;;;;;4983821;28;20200;-52
2022/11/27 05:45:04;;;;;;;20.50;19.10;;;5.30;38.20;;;;;;4991667;28;20413;-50
2022/11/27 05:47:29;;;;;;;19.03;17.87;;;5.30;37.90;;;;;;4991232;28;20236;-52
2022/11/27 05:49:55;;;;;;;19.30;18.20;;;5.20;38.60;;;;;;4988132;28;20433;-53
2022/11/27 05:52:21;;;;;;;20.30;19.10;;;5.20;38.60;;;;;;4988747;28;20205;-51
2022/11/27 05:54:46;;;;;;;18.40;17.30;;;5.20;38.60;;;;;;4980132;28;20283;-51
2022/11/27 05:57:12;;;;;;;20.40;19.10;;;5.20;38.60;;;;;;4990908;28;20333;-49
2022/11/27 05:59:37;;;;;;;19.77;18.47;;;5.40;39.20;;;;;;4983930;28;20784;-58
2022/11/27 06:02:03;;;;;;;17.70;16.30;;;5.70;38.40;;;;;;4971485;28;20189;-58
2022/11/27 06:04:33;;;;;;;18.20;17.20;;;6.00;37.20;;;;;;4971898;28;20206;-58
2022/11/27 06:06:59;;;;;;;18.23;17.13;;;6.30;36.00;;;;;;4976213;28;20217;-58
2022/11/27 06:09:24;;;;;;;18.13;17.03;;;6.60;35.20;;;;;;4989456;28;20436;-58
2022/11/27 06:11:50;;;;;;;19.93;18.63;;;6.60;33.60;;;;;;4979222;28;20488;-58
2022/11/27 06:14:16;;;;;;;19.43;18.07;;;6.30;34.50;;;;;;4971646;28;20210;-58
2022/11/27 06:16:41;;;;;;;19.93;18.70;;;6.20;34.70;;;;;;4971693;28;20183;-58
2022/11/27 06:19:08;;;;;;;19.23;17.73;;;5.90;35.70;;;;;;4973407;28;20222;-58
2022/11/27 06:21:33;;;;;;;18.83;17.60;;;5.70;36.10;;;;;;4970242;28;20183;-49
2022/11/27 06:23:59;;;;;;;17.30;16.20;;;5.60;37.00;;;;;;4972012;28;20433;-50
2022/11/27 06:26:27;;;;;;;18.40;17.20;;;5.70;38.20;;;;;;4971191;28;20234;-50
2022/11/27 06:28:54;;;;;;;18.97;17.60;;;5.90;36.70;;;;;;4973906;28;20623;-49
2022/11/27 06:31:23;;;;;;;18.90;17.70;;;5.80;36.20;;;;;;4988359;28;20440;-49
2022/11/27 06:33:50;;;;;;;17.30;16.20;;;5.80;36.10;;;;;;4990499;28;20777;-58
2022/11/27 06:36:17;;;;;;;18.03;16.93;;;5.60;36.80;;;;;;4988908;28;20933;-58
2022/11/27 06:38:43;;;;;;;22.23;20.73;;;5.90;37.40;;;;;;4991376;28;20421;-58
2022/11/27 06:41:18;;;;;;;18.93;17.80;;;6.10;36.60;;;;;;4991303;28;20464;-58
2022/11/27 06:43:44;;;;;;;18.63;17.53;;;6.30;35.40;;;;;;4991643;28;20428;-58
2022/11/27 06:46:16;;;;;;;18.27;17.17;;;6.60;34.50;;;;;;4992075;28;20487;-58
2022/11/27 06:48:44;;;;;;;16.57;15.67;;;6.80;33.80;;;;;;4990430;28;20838;-58
2022/11/27 06:51:13;;;;;;;16.97;15.97;;;6.90;32.90;;;;;;4991441;28;20417;-58
2022/11/27 06:53:39;;;;;;;17.10;16.10;;;7.10;32.50;;;;;;4991998;28;20784;-58
2022/11/27 06:56:07;;;;;;;16.10;15.20;;;7.20;32.10;;;;;;4991917;28;20778;-58
2022/11/27 06:58:34;;;;;;;18.30;17.23;;;7.20;31.30;;;;;;4991014;28;20425;-58
2022/11/27 07:01:01;;;;;;;16.20;15.30;;;7.20;31.10;;;;;;4990526;28;20428;-58
2022/11/27 07:03:27;;;;;;;16.70;15.70;;;7.30;30.80;;;;;;4988385;28;20557;-63
2022/11/27 07:05:53;;;;;;;16.97;15.83;;;7.20;31.30;;;;;;4991200;28;20455;-58
2022/11/27 07:08:20;;;;;;;17.30;16.30;;;7.00;31.10;;;;;;4989766;28;21063;-57
2022/11/27 07:10:45;;;;;;;17.30;16.10;;;6.70;32.70;;;;;;4990467;28;20496;-57
2022/11/27 07:13:11;;;;;;;16.77;15.77;;;6.70;32.30;;;;;;4990970;28;20452;-57
2022/11/27 07:15:36;;;;;;;18.47;17.07;;;6.30;33.30;;;;;;4989893;28;20181;-57
2022/11/27 07:18:02;;;;;;;17.43;16.23;;;6.10;34.30;;;;;;4990632;28;20177;-57
2022/11/27 07:20:28;;;;;;;16.73;15.73;;;5.90;34.60;;;;;;4989932;28;20189;-50
2022/11/27 07:22:54;;;;;;;18.00;16.80;;;5.80;35.60;;;;;;4990728;28;20189;-51
2022/11/27 07:25:20;;;;;;;18.13;17.13;;;5.80;35.10;;;;;;4991180;28;20221;-52
2022/11/27 07:27:45;;;;;;;19.17;17.97;;;5.50;35.50;;;;;;4990029;28;20500;-53
2022/11/27 07:30:11;;;;;;;17.83;16.73;;;5.50;37.90;;;;;;4989270;28;20229;-58
2022/11/27 07:32:37;;;;;;;18.33;17.23;;;5.30;38.70;;;;;;4989054;28;20178;-58
2022/11/27 07:35:03;;;;;;;18.47;17.17;;;5.20;38.60;;;;;;4988637;28;20496;-58
2022/11/27 07:37:30;;;;;;;18.50;17.17;;;5.40;38.80;;;;;;4989982;28;20612;-58
2022/11/27 07:39:56;;;;;;;18.73;17.60;;;5.40;37.10;;;;;;4988987;28;20432;-58
2022/11/27 07:42:22;;;;;;;19.00;17.80;;;5.30;37.60;;;;;;4991466;28;20421;-58
2022/11/27 07:44:47;;;;;;;18.93;17.70;;;5.40;38.00;;;;;;4990807;28;20185;-58
2022/11/27 07:47:13;;;;;;;17.07;15.97;;;5.60;37.50;;;;;;4990493;28;20264;-58
2022/11/27 07:49:39;;;;;;;17.00;16.07;;;5.90;36.40;;;;;;4993694;28;20182;-58
2022/11/27 07:52:05;;;;;;;16.50;15.60;;;6.20;34.50;;;;;;4992637;28;20178;-59
2022/11/27 07:54:30;;;;;;;17.60;16.63;;;6.20;34.00;;;;;;4992098;28;20178;-59
2022/11/27 07:56:56;;;;;;;17.40;16.50;;;6.10;34.70;;;;;;4992254;28;21315;-58
2022/11/27 07:59:21;;;;;;;17.40;16.40;;;6.10;35.40;;;;;;4995399;28;20209;-59
2022/11/27 08:01:47;;;;;;;17.17;16.13;;;6.20;34.80;;;;;;4994517;28;20185;-59
2022/11/27 08:04:13;;;;;;;16.87;15.87;;;6.20;34.00;;;;;;4993833;28;20533;-58
2022/11/27 08:06:38;;;;;;;18.10;17.10;;;6.00;34.40;;;;;;4994698;28;20276;-59
2022/11/27 08:09:04;;;;;;;17.10;16.10;;;6.00;35.40;;;;;;4993855;28;20268;-62
2022/11/27 08:11:34;;;;;;;16.90;15.90;;;6.00;35.60;;;;;;4993360;28;20527;-58
2022/11/27 08:14:03;;;;;;;18.57;17.40;;;6.30;36.90;;;;;;4988402;28;20178;-52
2022/11/27 08:16:30;;;;;;;17.77;16.77;;;6.70;35.30;;;;;;4988019;28;20420;-53
2022/11/27 08:18:55;;;;;;;15.83;14.83;;;6.60;33.70;;;;;;4991490;28;20445;-51
2022/11/27 08:21:21;;;;;;;16.47;15.57;;;6.40;33.40;;;;;;4992534;28;20417;-53
2022/11/27 08:23:47;;;;;;;16.17;15.23;;;6.20;34.20;;;;;;4994168;28;20638;-55
2022/11/27 08:26:13;;;;;;;16.00;15.10;;;6.20;35.30;;;;;;4993928;28;20460;-54
2022/11/27 08:28:40;;;;;;;16.37;15.27;;;6.20;35.90;;;;;;4991425;28;20269;-51
2022/11/27 08:31:07;;;;;;;15.80;14.97;;;6.10;35.20;;;;;;4974123;28;20830;-59
2022/11/27 08:33:34;;;;;;;14.80;14.00;;;6.20;35.20;;;;;;4979329;28;20441;-59
2022/11/27 08:36:00;;;;;;;14.70;13.90;;;6.10;36.00;;;;;;4977266;28;20455;-59
2022/11/27 08:38:26;;;;;;;15.27;14.37;;;6.10;36.10;;;;;;4976171;28;20437;-59
2022/11/27 08:41:00;;;;;;;15.00;14.20;;;6.20;36.30;;;;;;4976317;28;20504;-59
2022/11/27 08:43:26;;;;;;;17.30;16.20;;;6.40;35.30;;;;;;4970857;28;21126;-58
2022/11/27 08:45:52;;;;;;;16.27;15.27;;;6.50;35.20;;;;;;4975975;28;20445;-59
2022/11/27 08:48:19;;;;;;;15.47;14.57;;;6.70;35.90;;;;;;4977833;28;20487;-58
2022/11/27 08:50:45;;;;;;;15.77;14.77;;;6.70;35.30;;;;;;4975331;28;20453;-59
2022/11/27 08:53:11;;;;;;;16.30;15.33;;;6.90;35.00;;;;;;4979178;28;20536;-60
2022/11/27 08:55:37;;;;;;;15.00;14.13;;;7.20;34.80;;;;;;4977567;28;20472;-60
2022/11/27 08:58:03;;;;;;;15.70;14.67;;;7.40;33.70;;;;;;4978133;28;20875;-56
2022/11/27 09:00:29;;;;;;;14.47;13.50;;;7.50;32.60;;;;;;4974672;28;20335;-60
2022/11/27 09:02:55;;;;;;;15.40;14.37;;;7.30;33.30;;;;;;4975787;28;21489;-52
2022/11/27 09:05:21;;;;;;;15.37;14.47;;;7.20;33.50;;;;;;4974372;28;20469;-53
2022/11/27 09:07:48;;;;;;;15.20;14.40;;;7.10;34.90;;;;;;4976286;28;20276;-53
2022/11/27 09:10:14;;;;;;;15.67;14.67;;;6.90;35.00;;;;;;4974291;28;20461;-50
2022/11/27 09:12:40;;;;;;;17.73;16.53;;;6.80;35.70;;;;;;4960754;28;20977;-51
2022/11/27 09:15:06;;;;;;;15.20;14.20;;;6.90;35.60;;;;;;4973854;28;20261;-50
2022/11/27 09:17:31;;;;;;;13.43;12.63;;;7.10;35.60;;;;;;4976950;28;20316;-51
2022/11/27 09:19:57;;;;;;;12.90;12.10;;;7.20;35.00;;;;;;4977486;28;20546;-54
2022/11/27 09:22:23;;;;;;;12.87;11.97;;;7.20;34.70;;;;;;4976418;28;20316;-53
2022/11/27 09:24:48;;;;;;;14.37;13.53;;;7.30;34.50;;;;;;4977776;28;20280;-59
2022/11/27 09:27:14;;;;;;;14.47;13.67;;;7.30;34.70;;;;;;4976167;28;20696;-60
2022/11/27 09:29:39;;;;;;;13.80;13.10;;;7.40;34.20;;;;;;4977488;28;20717;-60
2022/11/27 09:32:05;;;;;;;13.80;13.03;;;7.50;34.10;;;;;;4975750;28;20234;-60
2022/11/27 09:34:31;;;;;;;15.07;14.10;;;7.40;35.10;;;;;;4978183;28;20233;-60
2022/11/27 09:36:56;;;;;;;26.07;24.43;;;7.40;34.90;;;;;;4975454;28;20760;-53
2022/11/27 09:39:22;;;;;;;24.17;22.77;;;7.30;35.10;;;;;;4977486;28;20230;-53
2022/11/27 09:41:50;;;;;;;18.77;17.73;;;7.30;35.00;;;;;;4974700;28;20230;-56
2022/11/27 09:44:22;;;;;;;19.37;18.37;;;7.20;34.40;;;;;;4977628;28;20237;-54
2022/11/27 09:46:49;;;;;;;18.53;17.43;;;7.30;35.00;;;;;;4974529;28;20477;-52
2022/11/27 09:49:40;;;;;;;19.40;18.20;;;7.40;33.20;;;;;;4978152;28;20489;-59
2022/11/27 09:52:18;;;;;;;19.50;18.30;;;7.40;33.80;;;;;;4977664;28;20485;-53
2022/11/27 09:54:53;;;;;;;18.93;17.77;;;7.40;34.20;;;;;;4975263;28;20449;-51
2022/11/27 09:57:27;;;;;;;18.80;17.70;;;7.60;34.00;;;;;;4975678;28;20457;-51
2022/11/27 09:59:54;;;;;;;18.77;17.50;;;7.80;32.80;;;;;;4975727;28;20448;-55
2022/11/27 10:02:27;;;;;;;16.07;15.17;;;7.70;33.30;;;;;;4976195;28;20449;-52
2022/11/27 10:04:54;;;;;;;16.23;15.27;;;7.90;33.00;;;;;;4976382;28;20469;-52
2022/11/27 10:07:26;;;;;;;16.53;15.73;;;7.80;32.00;;;;;;4975478;28;20464;-55
2022/11/27 10:09:58;;;;;;;16.27;15.33;;;7.70;32.70;;;;;;4976114;28;20989;-60
2022/11/27 10:12:29;;;;;;;17.10;16.10;;;7.80;32.20;;;;;;4975506;28;20520;-60
2022/11/27 10:15:18;;;;;;;18.43;17.30;;;7.60;31.90;;;;;;4978291;28;20453;-59
2022/11/27 10:17:47;;;;;;;16.83;15.90;;;7.50;32.60;;;;;;4978846;28;20453;-60
2022/11/27 10:20:27;;;;;;;18.10;17.07;;;7.60;32.60;;;;;;4975147;28;20547;-60
2022/11/27 10:23:14;;;;;;;16.87;15.87;;;7.50;33.00;;;;;;4976317;28;20468;-59
2022/11/27 10:25:51;;;;;;;17.07;16.17;;;7.40;33.30;;;;;;4975819;28;20507;-60
2022/11/27 10:28:57;;;;;;;16.10;15.30;;;7.50;33.10;;;;;;4974370;28;20471;-60
2022/11/27 10:31:32;;;;;;;16.10;15.20;;;7.60;32.80;;;;;;4974695;28;20869;-59
2022/11/27 10:34:01;;;;;;;17.30;16.30;;;7.70;32.90;;;;;;4976800;28;20529;-59
2022/11/27 10:36:38;;;;;;;16.20;15.30;;;7.70;32.30;;;;;;4974432;28;20539;-59
2022/11/27 10:39:11;;;;;;;16.87;15.97;;;7.60;33.30;;;;;;4976355;28;20449;-59
2022/11/27 10:41:51;;;;;;;19.47;18.27;;;7.80;33.70;;;;;;4975442;28;20856;-59
2022/11/27 10:44:33;;;;;;;18.47;17.27;;;8.00;33.00;;;;;;4975116;28;20960;-59
2022/11/27 10:47:06;;;;;;;16.13;15.23;;;8.20;32.10;;;;;;4978572;28;20833;-60
2022/11/27 10:49:36;;;;;;;16.50;15.63;;;8.40;32.50;;;;;;4978488;28;20512;-60
2022/11/27 10:52:02;;;;;;;17.23;16.03;;;8.60;32.10;;;;;;4977782;28;20542;-60
2022/11/27 10:54:36;;;;;;;17.37;16.17;;;8.70;31.40;;;;;;4977384;28;20445;-59
2022/11/27 10:57:30;;;;;;;17.07;16.27;;;8.80;30.70;;;;;;4977391;28;20221;-60
2022/11/27 11:00:04;;;;;;;16.50;15.50;;;8.90;30.50;;;;;;4976988;28;20477;-60
2022/11/27 11:02:37;;;;;;;17.20;16.30;;;9.00;30.00;;;;;;4977117;28;20803;-58
2022/11/27 11:05:32;;;;;;;16.37;15.37;;;9.00;29.80;;;;;;4974241;28;20561;-60
2022/11/27 11:08:06;;;;;;;15.50;14.70;;;9.10;29.90;;;;;;4971162;28;20453;-60
2022/11/27 11:10:42;;;;;;;16.00;15.00;;;9.20;29.70;;;;;;4974164;28;20483;-60
2022/11/27 11:13:10;;;;;;;15.07;14.07;;;9.30;29.90;;;;;;4970911;28;20483;-60
2022/11/27 11:15:57;;;;;;;15.60;14.70;;;9.30;29.40;;;;;;4976311;28;20936;-59
2022/11/27 11:18:32;;;;;;;14.73;13.83;;;9.40;29.30;;;;;;4969382;28;20961;-60
2022/11/27 11:21:01;;;;;;;15.20;14.30;;;9.30;29.10;;;;;;4961173;28;20498;-59
2022/11/27 11:23:33;;;;;;;13.83;13.00;;;9.30;28.30;;;;;;4969668;28;20461;-60
2022/11/27 11:26:07;;;;;;;13.60;12.90;;;9.20;28.70;;;;;;4967010;28;20457;-60
2022/11/27 11:28:42;;;;;;;14.63;13.83;;;9.30;28.60;;;;;;4968360;28;21008;-60
2022/11/27 11:31:09;;;;;;;14.93;13.90;;;9.20;28.80;;;;;;4973965;28;20528;-60
2022/11/27 11:33:48;;;;;;;14.53;13.80;;;9.30;29.00;;;;;;4965114;28;20458;-60
2022/11/27 11:36:14;;;;;;;15.00;14.10;;;9.30;28.70;;;;;;4978653;28;20531;-60
2022/11/27 11:38:44;;;;;;;15.57;14.67;;;9.30;28.40;;;;;;4967557;28;20565;-60
2022/11/27 11:41:11;;;;;;;14.40;13.60;;;9.20;29.40;;;;;;4969837;28;20252;-60
2022/11/27 11:43:37;;;;;;;14.67;13.90;;;9.10;29.00;;;;;;4976181;28;20481;-60
2022/11/27 11:46:22;;;;;;;14.90;14.10;;;9.10;29.30;;;;;;4970240;28;20474;-59
2022/11/27 11:49:05;;;;;;;14.40;13.53;;;9.20;29.00;;;;;;4968484;28;20451;-60
2022/11/27 11:51:34;;;;;;;14.77;13.90;;;9.20;28.40;;;;;;4978164;28;20471;-60
2022/11/27 11:54:23;;;;;;;13.90;13.10;;;9.10;28.90;;;;;;4967593;28;20449;-60
2022/11/27 11:56:51;;;;;;;15.93;14.93;;;8.90;29.10;;;;;;4966202;28;20440;-59
2022/11/27 11:59:46;;;;;;;15.30;14.30;;;8.80;30.20;;;;;;4978814;28;20441;-60
2022/11/27 12:02:20;;;;;;;14.33;13.53;;;9.10;30.00;;;;;;4972828;28;20448;-60
2022/11/27 12:04:51;;;;;;;14.30;13.40;;;9.10;29.40;;;;;;4978934;28;20474;-59
2022/11/27 12:07:32;;;;;;;13.77;12.77;;;9.10;30.30;;;;;;4985075;28;21319;-60
2022/11/27 12:10:26;;;;;;;14.07;13.27;;;9.20;28.60;;;;;;4993524;28;20850;-60
2022/11/27 12:13:32;;;;;;;13.50;12.80;;;9.10;28.90;;;;;;4985718;28;20440;-60
2022/11/27 12:15:58;;;;;;;14.13;13.33;;;9.10;29.00;;;;;;4987122;28;20591;-60
2022/11/27 12:18:54;;;;;;;14.50;13.60;;;9.20;28.80;;;;;;4985495;28;20527;-60
2022/11/27 12:21:44;;;;;;;13.67;12.87;;;9.40;29.30;;;;;;4986620;28;20229;-60
2022/11/27 12:24:26;;;;;;;13.53;12.93;;;9.60;28.80;;;;;;4979585;28;20995;-59
2022/11/27 12:26:57;;;;;;;13.90;13.03;;;9.70;28.00;;;;;;4972531;28;20699;-51
2022/11/27 12:29:43;;;;;;;12.77;12.07;;;9.80;27.30;;;;;;4978679;28;20463;-53
2022/11/27 12:32:25;;;;;;;12.03;11.43;;;9.90;27.10;;;;;;4989385;28;20484;-51
2022/11/27 12:35:00;;;;;;;13.40;12.47;;;10.00;25.80;;;;;;4995890;28;20483;-52
2022/11/27 12:37:49;;;;;;;11.67;10.97;;;10.10;25.40;;;;;;4999278;28;20474;-54
2022/11/27 12:40:33;;;;;;;12.00;11.40;;;10.10;25.30;;;;;;4982884;28;20456;-51
2022/11/27 12:43:22;;;;;;;10.77;10.30;;;10.10;25.30;;;;;;4997298;28;20873;-53
2022/11/27 12:46:05;;;;;;;11.37;10.67;;;10.20;25.50;;;;;;4997442;28;20472;-54
2022/11/27 12:49:00;;;;;;;11.63;11.03;;;10.00;23.20;;;;;;4997408;28;20456;-55
2022/11/27 12:51:35;;;;;;;10.93;10.20;;;9.90;24.70;;;;;;4994572;28;20456;-55
2022/11/27 12:54:16;;;;;;;10.00;9.53;;;9.80;23.80;;;;;;4996688;28;20458;-55